Time;durP1;ratioP1;P1;durP2;ratioP2;P2;SDS_P1;SDS_P2;PMS_P1;PMS_P2;Temp;Humidity;BMP_temperature;BMP_pressure;BME280_temperature;BME280_humidity;BME280_pressure;Samples;Min_cycle;Max_cycle;Signal;HPM_P1;HPM_P2
2024/01/14 00:02:38;;;;;;;10.82;5.68;;;;;;;;;;6288281;28;20641;-63
2024/01/14 00:05:39;;;;;;;8.23;6.07;;;;;;;;;;6287516;28;20048;-63
2024/01/14 00:08:39;;;;;;;9.75;5.63;;;;;;;;;;6287577;28;20399;-63
2024/01/14 00:11:40;;;;;;;8.30;5.35;;;;;;;;;;6286662;28;20060;-63
2024/01/14 00:14:41;;;;;;;8.45;5.28;;;;;;;;;;6288801;28;20049;-63
2024/01/14 00:17:42;;;;;;;8.30;5.57;;;;;;;;;;6283841;28;20056;-64
2024/01/14 00:20:43;;;;;;;14.77;8.68;;;;;;;;;;6289134;28;20052;-63
2024/01/14 00:23:43;;;;;;;20.48;12.80;;;;;;;;;;6285968;28;20792;-65
2024/01/14 00:26:44;;;;;;;9.85;6.15;;;;;;;;;;6289437;28;20056;-63
2024/01/14 00:29:45;;;;;;;9.18;5.35;;;;;;;;;;6288718;28;20049;-64
2024/01/14 00:32:45;;;;;;;9.10;5.70;;;;;;;;;;6287287;28;20433;-64
2024/01/14 00:35:48;;;;;;;8.35;5.18;;;;;;;;;;6287625;28;20479;-65
2024/01/14 00:38:49;;;;;;;9.18;5.40;;;;;;;;;;6286382;28;20037;-64
2024/01/14 00:41:49;;;;;;;9.43;5.47;;;;;;;;;;6286283;28;20471;-63
2024/01/14 00:44:50;;;;;;;8.52;5.25;;;;;;;;;;6288754;28;20044;-65
2024/01/14 00:47:51;;;;;;;7.13;4.65;;;;;;;;;;6284595;28;20433;-63
2024/01/14 00:50:51;;;;;;;9.30;5.07;;;;;;;;;;6288267;28;20060;-63
2024/01/14 00:53:52;;;;;;;9.05;5.63;;;;;;;;;;6286258;28;20056;-63
2024/01/14 00:56:52;;;;;;;8.27;4.93;;;;;;;;;;6285824;28;20071;-64
2024/01/14 00:59:53;;;;;;;8.75;5.35;;;;;;;;;;6288295;28;20049;-63
2024/01/14 01:02:54;;;;;;;8.40;5.07;;;;;;;;;;6288441;28;20044;-64
2024/01/14 01:05:55;;;;;;;6.47;4.13;;;;;;;;;;6286119;28;21050;-64
2024/01/14 01:08:55;;;;;;;8.95;5.30;;;;;;;;;;6287188;28;20053;-63
2024/01/14 01:11:56;;;;;;;7.85;4.55;;;;;;;;;;6288218;28;20055;-64
2024/01/14 01:14:57;;;;;;;7.38;4.60;;;;;;;;;;6286953;28;20052;-66
2024/01/14 01:17:58;;;;;;;8.27;5.18;;;;;;;;;;6286638;28;20511;-64
2024/01/14 01:20:58;;;;;;;8.35;4.50;;;;;;;;;;6291234;28;20039;-64
2024/01/14 01:23:59;;;;;;;8.57;5.60;;;;;;;;;;6292365;28;20403;-65
2024/01/14 01:27:00;;;;;;;7.93;4.72;;;;;;;;;;6288694;28;20040;-64
2024/01/14 01:30:01;;;;;;;9.13;5.13;;;;;;;;;;6291058;28;20051;-64
2024/01/14 01:33:02;;;;;;;10.80;5.50;;;;;;;;;;6290228;28;20052;-63
2024/01/14 01:36:03;;;;;;;8.65;5.10;;;;;;;;;;6291221;28;20052;-66
2024/01/14 01:39:04;;;;;;;8.43;5.25;;;;;;;;;;6290419;28;21463;-65
2024/01/14 01:42:05;;;;;;;8.95;5.90;;;;;;;;;;6290950;28;20060;-63
2024/01/14 01:45:06;;;;;;;8.93;5.20;;;;;;;;;;6291852;28;20056;-63
2024/01/14 01:48:07;;;;;;;9.00;4.88;;;;;;;;;;6290512;28;20436;-66
2024/01/14 01:51:09;;;;;;;9.70;5.10;;;;;;;;;;6290757;28;20098;-63
2024/01/14 01:54:10;;;;;;;9.52;5.57;;;;;;;;;;6290219;28;20048;-63
2024/01/14 01:57:12;;;;;;;8.88;5.45;;;;;;;;;;6290116;28;20048;-63
2024/01/14 02:00:15;;;;;;;8.27;4.95;;;;;;;;;;6291190;28;20058;-64
2024/01/14 02:03:16;;;;;;;8.85;5.22;;;;;;;;;;6271745;28;21242;-65
2024/01/14 02:06:17;;;;;;;8.02;4.90;;;;;;;;;;6290572;28;20129;-63
2024/01/14 02:09:18;;;;;;;9.10;5.27;;;;;;;;;;6289926;28;20048;-64
2024/01/14 02:12:19;;;;;;;7.60;4.38;;;;;;;;;;6289668;28;20392;-63
2024/01/14 02:15:20;;;;;;;8.23;5.05;;;;;;;;;;6288238;28;20044;-67
2024/01/14 02:18:21;;;;;;;8.68;5.00;;;;;;;;;;6287566;28;20044;-64
2024/01/14 02:21:49;;;;;;;8.60;5.25;;;;;;;;;;6289944;28;20048;-64
2024/01/14 02:24:51;;;;;;;9.68;5.18;;;;;;;;;;6290318;28;20107;-64
2024/01/14 02:27:52;;;;;;;8.45;5.13;;;;;;;;;;6290066;28;20127;-63
2024/01/14 02:30:54;;;;;;;10.05;5.32;;;;;;;;;;6289959;28;20498;-64
2024/01/14 02:33:54;;;;;;;8.95;5.22;;;;;;;;;;6290595;28;20059;-65
2024/01/14 02:36:55;;;;;;;8.48;5.00;;;;;;;;;;6289719;28;20048;-63
2024/01/14 02:39:56;;;;;;;9.55;5.28;;;;;;;;;;6286626;28;20064;-64
2024/01/14 02:42:57;;;;;;;10.13;5.70;;;;;;;;;;6290304;28;20503;-64
2024/01/14 02:45:57;;;;;;;8.43;5.38;;;;;;;;;;6290188;28;20064;-63
2024/01/14 02:48:58;;;;;;;8.40;5.30;;;;;;;;;;6287590;28;20504;-64
2024/01/14 02:51:59;;;;;;;7.45;4.95;;;;;;;;;;6290118;28;20105;-65
2024/01/14 02:55:00;;;;;;;10.80;5.95;;;;;;;;;;6289808;28;20056;-64
2024/01/14 02:58:00;;;;;;;8.25;4.68;;;;;;;;;;6288402;28;20109;-64
2024/01/14 03:01:02;;;;;;;8.73;5.53;;;;;;;;;;6286443;28;20136;-64
2024/01/14 03:04:03;;;;;;;7.47;5.00;;;;;;;;;;6289934;28;20051;-63
2024/01/14 03:07:03;;;;;;;8.80;5.65;;;;;;;;;;6289080;28;20356;-64
2024/01/14 03:10:04;;;;;;;8.18;4.65;;;;;;;;;;6287768;28;20060;-65
2024/01/14 03:13:05;;;;;;;10.63;6.00;;;;;;;;;;6289586;28;20489;-63
2024/01/14 03:16:06;;;;;;;8.63;5.30;;;;;;;;;;6289662;28;20055;-66
2024/01/14 03:19:07;;;;;;;8.25;5.25;;;;;;;;;;6287619;28;20055;-64
2024/01/14 03:22:07;;;;;;;8.57;5.18;;;;;;;;;;6289812;28;20118;-64
2024/01/14 03:25:08;;;;;;;9.35;5.63;;;;;;;;;;6289133;28;20056;-64
2024/01/14 03:28:09;;;;;;;8.45;5.25;;;;;;;;;;6287232;28;20434;-64
2024/01/14 03:31:16;;;;;;;8.57;5.28;;;;;;;;;;6287011;28;20040;-63
2024/01/14 03:34:17;;;;;;;9.30;5.75;;;;;;;;;;6284463;28;20044;-63
2024/01/14 03:37:17;;;;;;;9.00;5.43;;;;;;;;;;6288603;28;20060;-63
2024/01/14 03:40:20;;;;;;;10.20;5.43;;;;;;;;;;6288175;28;20041;-63
2024/01/14 03:43:21;;;;;;;;;;;;;;;;;;6286617;28;20044;-66
2024/01/14 03:46:21;;;;;;;9.13;5.55;;;;;;;;;;6289347;28;20302;-63
2024/01/14 03:49:22;;;;;;;8.70;5.05;;;;;;;;;;6287607;28;20080;-66
2024/01/14 03:52:23;;;;;;;8.75;5.25;;;;;;;;;;6289626;28;20059;-63
2024/01/14 03:55:24;;;;;;;9.25;5.30;;;;;;;;;;6289228;28;20123;-65
2024/01/14 03:58:24;;;;;;;10.60;5.97;;;;;;;;;;6287489;28;20101;-66
2024/01/14 04:01:25;;;;;;;9.48;5.28;;;;;;;;;;6285654;28;20052;-65
2024/01/14 04:04:26;;;;;;;9.02;5.88;;;;;;;;;;6288184;28;20055;-63
2024/01/14 04:07:26;;;;;;;8.82;5.15;;;;;;;;;;6288562;28;20055;-65
2024/01/14 04:10:27;;;;;;;11.27;6.28;;;;;;;;;;6287776;28;20049;-65
2024/01/14 04:13:28;;;;;;;10.32;5.75;;;;;;;;;;6288890;28;20521;-65
2024/01/14 04:16:49;;;;;;;9.63;5.50;;;;;;;;;;6288770;28;20457;-63
2024/01/14 04:19:49;;;;;;;9.88;5.65;;;;;;;;;;6286699;28;20048;-65
2024/01/14 04:22:50;;;;;;;11.68;6.40;;;;;;;;;;6287575;28;20064;-65
2024/01/14 04:25:51;;;;;;;9.77;5.57;;;;;;;;;;6287580;28;20071;-65
2024/01/14 04:28:52;;;;;;;9.25;5.47;;;;;;;;;;6288305;28;20060;-65
2024/01/14 04:31:53;;;;;;;9.63;5.60;;;;;;;;;;6287717;28;20795;-65
2024/01/14 04:34:53;;;;;;;10.05;5.50;;;;;;;;;;6286831;28;20048;-65
2024/01/14 04:37:54;;;;;;;9.52;5.93;;;;;;;;;;6288166;28;20051;-65
2024/01/14 04:40:55;;;;;;;8.73;5.70;;;;;;;;;;6286767;28;20040;-65
2024/01/14 04:43:56;;;;;;;8.57;5.63;;;;;;;;;;6286912;28;20059;-63
2024/01/14 04:46:57;;;;;;;9.75;5.53;;;;;;;;;;6288880;28;20495;-65
2024/01/14 04:49:57;;;;;;;9.25;5.93;;;;;;;;;;6287287;28;20068;-66
2024/01/14 04:52:58;;;;;;;9.73;5.28;;;;;;;;;;6284826;28;20076;-65
2024/01/14 04:55:59;;;;;;;9.60;5.63;;;;;;;;;;6293338;28;20044;-65
2024/01/14 04:58:59;;;;;;;9.77;5.13;;;;;;;;;;6292314;28;20094;-65
2024/01/14 05:02:00;;;;;;;10.52;5.53;;;;;;;;;;6292068;28;20495;-64
2024/01/14 05:05:01;;;;;;;10.25;5.88;;;;;;;;;;6293102;28;20048;-65
2024/01/14 05:08:02;;;;;;;10.70;6.28;;;;;;;;;;6292564;28;20052;-65
2024/01/14 05:11:04;;;;;;;10.82;6.05;;;;;;;;;;6290983;28;20075;-65
2024/01/14 05:14:04;;;;;;;9.63;5.67;;;;;;;;;;6292693;28;20049;-65
2024/01/14 05:17:05;;;;;;;8.93;5.53;;;;;;;;;;6292322;28;20411;-65
2024/01/14 05:20:08;;;;;;;10.82;6.13;;;;;;;;;;6291008;28;20128;-65
2024/01/14 05:23:09;;;;;;;10.15;6.00;;;;;;;;;;6292293;28;20048;-65
2024/01/14 05:26:10;;;;;;;9.25;5.50;;;;;;;;;;6292767;28;20135;-64
2024/01/14 05:29:11;;;;;;;10.40;6.25;;;;;;;;;;6291564;28;20415;-64
2024/01/14 05:32:16;;;;;;;11.32;6.28;;;;;;;;;;6291730;28;20074;-65
2024/01/14 05:35:17;;;;;;;11.07;6.20;;;;;;;;;;6276760;28;20098;-65
2024/01/14 05:38:19;;;;;;;9.57;5.78;;;;;;;;;;6279862;28;20044;-65
2024/01/14 05:41:19;;;;;;;9.45;5.53;;;;;;;;;;6290415;28;20064;-65
2024/01/14 05:44:20;;;;;;;10.20;6.13;;;;;;;;;;6292300;28;20885;-64
2024/01/14 05:47:21;;;;;;;10.50;6.10;;;;;;;;;;6291549;28;20068;-65
2024/01/14 05:50:22;;;;;;;10.10;5.90;;;;;;;;;;6289246;28;20051;-65
2024/01/14 05:53:22;;;;;;;10.60;6.55;;;;;;;;;;6291806;28;20048;-65
2024/01/14 05:56:26;;;;;;;11.90;6.57;;;;;;;;;;6288043;28;20127;-65
2024/01/14 05:59:27;;;;;;;11.18;6.05;;;;;;;;;;6290930;28;20484;-65
2024/01/14 06:02:28;;;;;;;12.57;6.72;;;;;;;;;;6290895;28;20057;-65
2024/01/14 06:05:28;;;;;;;11.43;6.90;;;;;;;;;;6290866;28;20040;-65
2024/01/14 06:08:29;;;;;;;12.40;6.78;;;;;;;;;;6291151;28;20071;-66
2024/01/14 06:11:30;;;;;;;11.75;6.63;;;;;;;;;;6290080;28;20510;-65
2024/01/14 06:14:31;;;;;;;13.07;6.90;;;;;;;;;;6290964;28;20508;-65
2024/01/14 06:17:31;;;;;;;10.82;6.13;;;;;;;;;;6290924;28;20041;-67
2024/01/14 06:20:32;;;;;;;11.10;5.55;;;;;;;;;;6290187;28;20136;-65
2024/01/14 06:23:34;;;;;;;11.35;6.75;;;;;;;;;;6290646;28;20625;-68
2024/01/14 06:26:35;;;;;;;10.68;6.35;;;;;;;;;;6291064;28;20048;-65
2024/01/14 06:29:36;;;;;;;11.15;6.28;;;;;;;;;;6288019;28;20051;-65
2024/01/14 06:32:37;;;;;;;11.68;5.85;;;;;;;;;;6289240;28;20403;-65
2024/01/14 06:35:37;;;;;;;10.35;6.32;;;;;;;;;;6289509;28;20044;-65
2024/01/14 06:38:39;;;;;;;11.13;6.38;;;;;;;;;;6289624;28;20068;-64
2024/01/14 06:41:39;;;;;;;9.68;5.95;;;;;;;;;;6289145;28;20403;-66
2024/01/14 06:44:40;;;;;;;10.90;5.55;;;;;;;;;;6290524;28;20054;-65
2024/01/14 06:47:41;;;;;;;9.25;5.60;;;;;;;;;;6286775;28;20407;-65
2024/01/14 06:50:42;;;;;;;11.75;6.55;;;;;;;;;;6286863;28;20041;-65
2024/01/14 06:53:42;;;;;;;8.50;5.13;;;;;;;;;;6292661;28;20392;-65
2024/01/14 06:56:47;;;;;;;9.57;5.47;;;;;;;;;;6288610;28;20040;-65
2024/01/14 06:59:48;;;;;;;10.52;5.72;;;;;;;;;;6289081;28;20040;-65
2024/01/14 07:02:49;;;;;;;9.85;5.68;;;;;;;;;;6288889;28;20044;-65
2024/01/14 07:05:50;;;;;;;9.95;5.90;;;;;;;;;;6289099;28;20060;-65
2024/01/14 07:08:51;;;;;;;9.90;5.50;;;;;;;;;;6288240;28;20094;-66
2024/01/14 07:11:52;;;;;;;12.15;6.28;;;;;;;;;;6288544;28;20052;-66
2024/01/14 07:14:52;;;;;;;11.43;6.60;;;;;;;;;;6290320;28;20049;-65
2024/01/14 07:17:53;;;;;;;9.85;6.18;;;;;;;;;;6288230;28;20512;-67
2024/01/14 07:20:54;;;;;;;12.10;6.55;;;;;;;;;;6288830;28;20534;-70
2024/01/14 07:23:55;;;;;;;11.73;6.50;;;;;;;;;;6289861;28;20090;-64
2024/01/14 07:26:56;;;;;;;12.07;6.45;;;;;;;;;;6289052;28;20044;-65
2024/01/14 07:29:56;;;;;;;11.57;6.90;;;;;;;;;;6280903;28;20048;-68
2024/01/14 07:32:57;;;;;;;10.38;5.95;;;;;;;;;;6289420;28;20929;-65
2024/01/14 07:35:58;;;;;;;12.13;5.85;;;;;;;;;;6281249;28;20415;-64
2024/01/14 07:38:59;;;;;;;12.40;6.53;;;;;;;;;;6286674;28;20043;-64
2024/01/14 07:42:00;;;;;;;10.30;6.22;;;;;;;;;;6286146;28;20036;-65
2024/01/14 07:45:02;;;;;;;10.73;6.50;;;;;;;;;;6276328;28;20036;-65
2024/01/14 07:48:04;;;;;;;10.68;6.30;;;;;;;;;;6286346;28;20490;-63
2024/01/14 07:51:05;;;;;;;11.70;6.83;;;;;;;;;;6276850;28;20416;-63
2024/01/14 07:54:05;;;;;;;10.93;6.30;;;;;;;;;;6279100;28;20052;-63
2024/01/14 07:57:06;;;;;;;13.23;6.18;;;;;;;;;;6289811;28;20132;-62
2024/01/14 08:00:07;;;;;;;10.95;5.90;;;;;;;;;;6285911;28;20091;-69
2024/01/14 08:03:08;;;;;;;9.60;5.85;;;;;;;;;;6288865;28;20045;-65
2024/01/14 08:06:10;;;;;;;11.65;6.35;;;;;;;;;;6290791;28;20454;-66
2024/01/14 08:09:11;;;;;;;13.43;6.87;;;;;;;;;;6280278;28;20056;-65
2024/01/14 08:12:12;;;;;;;11.20;6.07;;;;;;;;;;6285797;28;20056;-64
2024/01/14 08:15:14;;;;;;;12.13;6.38;;;;;;;;;;6276817;28;20044;-64
2024/01/14 08:18:14;;;;;;;11.77;6.60;;;;;;;;;;6290745;28;20048;-65
2024/01/14 08:21:15;;;;;;;12.70;6.28;;;;;;;;;;6289445;28;20476;-65
2024/01/14 08:24:16;;;;;;;11.57;6.75;;;;;;;;;;6287273;28;20850;-66
2024/01/14 08:27:17;;;;;;;10.55;5.75;;;;;;;;;;6290876;28;20040;-66
2024/01/14 08:30:18;;;;;;;10.98;5.60;;;;;;;;;;6293831;28;20053;-67
2024/01/14 08:33:19;;;;;;;10.77;6.23;;;;;;;;;;6293510;28;20052;-66
2024/01/14 08:36:19;;;;;;;10.82;6.57;;;;;;;;;;6295687;28;20122;-64
2024/01/14 08:39:20;;;;;;;10.55;5.63;;;;;;;;;;6292729;28;20044;-65
2024/01/14 08:42:21;;;;;;;12.13;6.13;;;;;;;;;;6293945;28;20052;-67
2024/01/14 08:45:21;;;;;;;13.10;6.30;;;;;;;;;;6292801;28;20044;-64
2024/01/14 08:48:23;;;;;;;12.27;6.38;;;;;;;;;;6293832;28;20063;-65
2024/01/14 08:51:24;;;;;;;11.55;5.93;;;;;;;;;;6280412;28;20139;-64
2024/01/14 08:54:25;;;;;;;13.30;8.32;;;;;;;;;;6292820;28;20068;-65
2024/01/14 08:57:25;;;;;;;10.32;6.07;;;;;;;;;;6295191;28;20052;-64
2024/01/14 09:00:26;;;;;;;11.98;6.82;;;;;;;;;;6291685;28;20066;-64
2024/01/14 09:03:27;;;;;;;11.60;6.18;;;;;;;;;;6295007;28;20048;-73
2024/01/14 09:06:27;;;;;;;12.77;6.88;;;;;;;;;;6294238;28;20060;-70
2024/01/14 09:09:28;;;;;;;12.13;6.43;;;;;;;;;;6293291;28;20143;-70
2024/01/14 09:12:29;;;;;;;12.20;6.93;;;;;;;;;;6293389;28;20044;-69
2024/01/14 09:15:33;;;;;;;11.65;6.45;;;;;;;;;;6293861;28;20066;-68
2024/01/14 09:18:34;;;;;;;13.43;8.20;;;;;;;;;;6294559;28;20048;-69
2024/01/14 09:21:35;;;;;;;12.30;6.55;;;;;;;;;;6292778;28;20503;-68
2024/01/14 09:24:35;;;;;;;16.25;9.20;;;;;;;;;;6293633;28;20056;-67
2024/01/14 09:27:36;;;;;;;10.75;6.43;;;;;;;;;;6293909;28;20207;-67
2024/01/14 09:30:38;;;;;;;9.95;6.07;;;;;;;;;;6288185;28;20506;-66
2024/01/14 09:33:38;;;;;;;14.07;6.18;;;;;;;;;;6290540;28;20067;-66
2024/01/14 09:36:41;;;;;;;10.02;5.47;;;;;;;;;;6290441;28;20057;-68
2024/01/14 09:39:41;;;;;;;10.20;6.18;;;;;;;;;;6281072;28;20495;-66
2024/01/14 09:42:46;;;;;;;10.63;6.00;;;;;;;;;;6292456;28;20047;-68
2024/01/14 09:45:47;;;;;;;9.77;5.97;;;;;;;;;;6292933;28;20071;-67
2024/01/14 09:48:48;;;;;;;10.95;6.65;;;;;;;;;;6291120;28;20053;-65
2024/01/14 09:51:49;;;;;;;10.88;6.05;;;;;;;;;;6291713;28;20056;-65
2024/01/14 09:54:51;;;;;;;13.43;6.53;;;;;;;;;;6276656;28;20419;-67
2024/01/14 09:57:52;;;;;;;10.60;6.03;;;;;;;;;;6293526;28;20056;-70
2024/01/14 10:00:55;;;;;;;11.30;5.95;;;;;;;;;;6280150;28;20330;-72
2024/01/14 10:04:00;;;;;;;10.55;6.43;;;;;;;;;;6291835;28;20067;-68
2024/01/14 10:07:01;;;;;;;10.05;5.80;;;;;;;;;;6286413;28;20147;-68
2024/01/14 10:10:06;;;;;;;10.87;5.87;;;;;;;;;;6289209;28;20491;-69
2024/01/14 10:13:07;;;;;;;11.13;6.32;;;;;;;;;;6291490;28;20507;-68
2024/01/14 10:16:12;;;;;;;10.40;5.90;;;;;;;;;;6286154;28;20056;-75
2024/01/14 10:19:12;;;;;;;10.93;6.25;;;;;;;;;;6287996;28;20053;-68
2024/01/14 10:22:16;;;;;;;10.52;5.72;;;;;;;;;;6279096;28;20505;-67
2024/01/14 10:25:18;;;;;;;9.32;5.80;;;;;;;;;;6287752;28;20049;-67
2024/01/14 10:28:19;;;;;;;;;;;;;;;;;;6293329;28;20052;-67
2024/01/14 10:31:19;;;;;;;9.95;5.35;;;;;;;;;;6290900;28;20370;-69
2024/01/14 10:34:20;;;;;;;10.15;5.95;;;;;;;;;;6289314;28;20040;-69
2024/01/14 10:37:26;;;;;;;9.82;6.18;;;;;;;;;;6292451;28;20094;-66
2024/01/14 10:40:27;;;;;;;10.20;6.07;;;;;;;;;;6282645;28;20044;-68
2024/01/14 10:43:28;;;;;;;9.23;5.15;;;;;;;;;;6289949;28;20079;-68
2024/01/14 10:46:32;;;;;;;11.27;6.77;;;;;;;;;;6289193;28;20044;-69
2024/01/14 10:49:34;;;;;;;11.82;7.18;;;;;;;;;;6288408;28;20048;-67
2024/01/14 10:52:39;;;;;;;10.80;6.03;;;;;;;;;;6290170;28;20484;-66
2024/01/14 10:55:43;;;;;;;11.32;6.40;;;;;;;;;;6279323;28;20048;-68
2024/01/14 10:58:46;;;;;;;10.23;5.60;;;;;;;;;;6288733;28;20891;-67
2024/01/14 11:01:53;;;;;;;11.18;5.75;;;;;;;;;;6284379;28;20057;-70
2024/01/14 11:04:54;;;;;;;10.18;5.70;;;;;;;;;;6286159;28;20089;-69
2024/01/14 11:07:55;;;;;;;9.30;5.68;;;;;;;;;;6290391;28;20385;-68
2024/01/14 11:10:56;;;;;;;10.50;5.38;;;;;;;;;;6284785;28;20057;-68
2024/01/14 11:14:14;;;;;;;10.13;5.93;;;;;;;;;;6289591;28;20052;-68
2024/01/14 11:17:56;;;;;;;10.30;6.32;;;;;;;;;;6290470;28;20106;-70
2024/01/14 11:21:36;;;;;;;10.80;5.50;;;;;;;;;;6288578;28;20056;-64
2024/01/14 11:24:37;;;;;;;10.02;4.78;;;;;;;;;;6283537;28;20049;-68
2024/01/14 11:27:38;;;;;;;10.00;5.63;;;;;;;;;;6290536;28;20411;-66
2024/01/14 11:30:55;;;;;;;9.85;5.93;;;;;;;;;;6287433;28;20064;-67
2024/01/14 11:33:56;;;;;;;10.80;5.50;;;;;;;;;;6287063;28;20060;-65
2024/01/14 11:36:56;;;;;;;9.85;5.57;;;;;;;;;;6289588;28;20438;-66
2024/01/14 11:40:16;;;;;;;9.07;5.15;;;;;;;;;;6284240;28;20048;-64
2024/01/14 11:43:17;;;;;;;8.32;5.00;;;;;;;;;;6288461;28;20041;-67
2024/01/14 11:46:39;;;;;;;8.70;5.78;;;;;;;;;;6290314;28;20163;-67
2024/01/14 11:49:40;;;;;;;9.45;6.07;;;;;;;;;;6290018;28;20060;-67
2024/01/14 11:52:49;;;;;;;9.80;6.25;;;;;;;;;;6288571;28;20048;-69
2024/01/14 11:55:50;;;;;;;13.50;8.20;;;;;;;;;;6290039;28;20053;-70
2024/01/14 11:58:52;;;;;;;12.65;6.55;;;;;;;;;;6269135;28;20178;-68
2024/01/14 12:01:53;;;;;;;16.15;8.98;;;;;;;;;;6267998;28;20107;-73
2024/01/14 12:04:55;;;;;;;12.73;7.88;;;;;;;;;;6264761;28;20052;-70
2024/01/14 12:07:58;;;;;;;11.77;6.90;;;;;;;;;;6262935;28;20057;-67
2024/01/14 12:11:03;;;;;;;;;;;;;;;;;;6270102;28;20148;-70
2024/01/14 12:14:04;;;;;;;10.68;6.55;;;;;;;;;;6269022;28;20311;-68
2024/01/14 12:17:11;;;;;;;10.13;5.78;;;;;;;;;;6263625;28;20047;-69
2024/01/14 12:20:12;;;;;;;10.68;6.25;;;;;;;;;;6274015;28;20057;-68
2024/01/14 12:23:13;;;;;;;9.73;6.32;;;;;;;;;;6265852;28;20057;-70
2024/01/14 12:26:14;;;;;;;10.95;6.05;;;;;;;;;;6271079;28;20118;-69
2024/01/14 12:29:14;;;;;;;10.20;5.75;;;;;;;;;;6269933;28;20469;-66
2024/01/14 12:32:16;;;;;;;10.18;6.45;;;;;;;;;;6269215;28;20423;-68
2024/01/14 12:35:17;;;;;;;24.13;13.25;;;;;;;;;;6266680;28;20053;-69
2024/01/14 12:38:18;;;;;;;12.93;6.38;;;;;;;;;;6271540;28;20057;-67
2024/01/14 12:41:19;;;;;;;13.57;9.10;;;;;;;;;;6269326;28;20553;-69
2024/01/14 12:44:20;;;;;;;11.48;6.93;;;;;;;;;;6275480;28;20505;-68
2024/01/14 12:47:21;;;;;;;12.57;6.75;;;;;;;;;;6266480;28;20045;-69
2024/01/14 12:50:22;;;;;;;10.02;6.25;;;;;;;;;;6273904;28;20045;-67
2024/01/14 12:53:23;;;;;;;10.82;6.88;;;;;;;;;;6268796;28;20048;-68
2024/01/14 12:56:24;;;;;;;10.05;6.10;;;;;;;;;;6271053;28;20056;-69
2024/01/14 12:59:25;;;;;;;10.43;6.38;;;;;;;;;;6266007;28;20091;-71
2024/01/14 13:02:26;;;;;;;13.00;7.25;;;;;;;;;;6271386;28;20059;-74
2024/01/14 13:05:27;;;;;;;11.15;6.60;;;;;;;;;;6274046;28;20126;-64
2024/01/14 13:08:29;;;;;;;11.75;6.32;;;;;;;;;;6266067;28;20057;-66
2024/01/14 13:11:29;;;;;;;14.45;8.82;;;;;;;;;;6267744;28;20411;-62
2024/01/14 13:14:30;;;;;;;12.95;7.10;;;;;;;;;;6268919;28;20053;-63
2024/01/14 13:17:31;;;;;;;16.42;10.52;;;;;;;;;;6271416;28;20412;-66
2024/01/14 13:20:32;;;;;;;12.30;6.95;;;;;;;;;;6276359;28;20045;-69
2024/01/14 13:23:33;;;;;;;12.85;6.47;;;;;;;;;;6267601;28;20068;-67
2024/01/14 13:26:36;;;;;;;10.10;6.20;;;;;;;;;;6273284;28;20064;-67
2024/01/14 13:29:39;;;;;;;11.32;6.18;;;;;;;;;;6270152;28;20040;-68
2024/01/14 13:32:40;;;;;;;9.63;6.35;;;;;;;;;;6267407;28;20056;-68
2024/01/14 13:35:41;;;;;;;13.07;7.30;;;;;;;;;;6270320;28;20475;-67
2024/01/14 13:38:42;;;;;;;12.38;6.28;;;;;;;;;;6269829;28;20126;-66
2024/01/14 13:41:43;;;;;;;9.95;6.57;;;;;;;;;;6272259;28;20060;-68
2024/01/14 13:44:47;;;;;;;11.23;6.40;;;;;;;;;;6270380;28;20056;-67
2024/01/14 13:47:48;;;;;;;12.35;7.65;;;;;;;;;;6267682;28;20106;-69
2024/01/14 13:50:49;;;;;;;10.70;6.18;;;;;;;;;;6272852;28;20053;-68
2024/01/14 13:53:49;;;;;;;11.65;6.18;;;;;;;;;;6267314;28;20053;-67
2024/01/14 13:56:54;;;;;;;22.75;14.13;;;;;;;;;;6271094;28;20409;-67
2024/01/14 13:59:55;;;;;;;17.08;11.15;;;;;;;;;;6272130;28;20827;-68
2024/01/14 14:02:57;;;;;;;14.93;8.98;;;;;;;;;;6274449;28;20052;-68
2024/01/14 14:05:57;;;;;;;15.88;8.82;;;;;;;;;;6271362;28;20040;-69
2024/01/14 14:08:58;;;;;;;12.68;6.88;;;;;;;;;;6271497;28;20150;-68
2024/01/14 14:11:59;;;;;;;10.93;7.00;;;;;;;;;;6269879;28;20451;-67
2024/01/14 14:15:01;;;;;;;12.27;7.68;;;;;;;;;;6272490;28;20049;-68
2024/01/14 14:18:02;;;;;;;13.95;8.25;;;;;;;;;;6264907;28;20053;-70
2024/01/14 14:21:03;;;;;;;12.30;7.78;;;;;;;;;;6272912;28;20056;-69
2024/01/14 14:24:03;;;;;;;12.20;7.13;;;;;;;;;;6267056;28;20554;-66
2024/01/14 14:27:04;;;;;;;13.38;7.32;;;;;;;;;;6268870;28;20086;-66
2024/01/14 14:30:06;;;;;;;10.48;6.72;;;;;;;;;;6272944;28;20052;-69
2024/01/14 14:33:06;;;;;;;16.13;10.67;;;;;;;;;;6266762;28;20688;-69
2024/01/14 14:36:07;;;;;;;13.25;8.75;;;;;;;;;;6268749;28;20048;-69
2024/01/14 14:39:09;;;;;;;13.25;8.13;;;;;;;;;;6275457;28;20125;-68
2024/01/14 14:42:10;;;;;;;15.20;7.82;;;;;;;;;;6271675;28;20056;-69
2024/01/14 14:45:12;;;;;;;15.23;7.65;;;;;;;;;;6271036;28;20044;-69
2024/01/14 14:48:13;;;;;;;12.65;6.95;;;;;;;;;;6267138;28;20063;-70
2024/01/14 14:51:15;;;;;;;12.55;7.35;;;;;;;;;;6273442;28;20053;-68
2024/01/14 14:54:15;;;;;;;12.32;7.20;;;;;;;;;;6270192;28;20060;-65
2024/01/14 14:57:16;;;;;;;12.80;7.80;;;;;;;;;;6272438;28;20036;-68
2024/01/14 15:00:19;;;;;;;14.82;8.80;;;;;;;;;;6271302;28;20053;-69
2024/01/14 15:03:20;;;;;;;15.25;9.20;;;;;;;;;;6268476;28;20049;-68
2024/01/14 15:06:21;;;;;;;17.20;10.02;;;;;;;;;;6271135;28;20060;-67
2024/01/14 15:09:23;;;;;;;17.00;7.82;;;;;;;;;;6268844;28;20052;-66
2024/01/14 15:12:23;;;;;;;13.13;8.10;;;;;;;;;;6265109;28;20060;-69
2024/01/14 15:15:29;;;;;;;15.10;8.18;;;;;;;;;;6268667;28;20499;-71
2024/01/14 15:18:29;;;;;;;12.45;7.78;;;;;;;;;;6262738;28;20061;-68
2024/01/14 15:21:31;;;;;;;13.75;6.85;;;;;;;;;;6267098;28;20052;-67
2024/01/14 15:24:32;;;;;;;13.93;7.75;;;;;;;;;;6264993;28;20131;-69
2024/01/14 15:27:35;;;;;;;14.07;8.50;;;;;;;;;;6263241;28;20052;-67
2024/01/14 15:30:37;;;;;;;;;;;;;;;;;;6265814;28;20131;-67
2024/01/14 15:33:38;;;;;;;9.90;5.80;;;;;;;;;;6261903;28;20299;-68
2024/01/14 15:36:39;;;;;;;10.73;5.78;;;;;;;;;;6263802;28;20049;-68
2024/01/14 15:39:40;;;;;;;11.52;6.47;;;;;;;;;;6269211;28;20043;-68
2024/01/14 15:42:40;;;;;;;14.48;7.72;;;;;;;;;;6265124;28;20053;-67
2024/01/14 15:45:41;;;;;;;16.50;8.95;;;;;;;;;;6270156;28;20424;-68
2024/01/14 15:48:44;;;;;;;12.32;7.07;;;;;;;;;;6263605;28;20052;-70
2024/01/14 15:51:45;;;;;;;12.52;6.57;;;;;;;;;;6270431;28;20043;-71
2024/01/14 15:54:45;;;;;;;11.52;6.57;;;;;;;;;;6263412;28;20515;-69
2024/01/14 15:57:47;;;;;;;11.65;7.40;;;;;;;;;;6260945;28;20609;-68
2024/01/14 16:00:48;;;;;;;11.32;6.65;;;;;;;;;;6280302;28;20048;-68
2024/01/14 16:03:49;;;;;;;11.13;6.18;;;;;;;;;;6264288;28;20059;-69
2024/01/14 16:06:50;;;;;;;10.98;5.93;;;;;;;;;;6266693;28;20065;-66
2024/01/14 16:09:51;;;;;;;11.25;5.43;;;;;;;;;;6272244;28;20052;-65
2024/01/14 16:12:53;;;;;;;9.93;5.70;;;;;;;;;;6266692;28;20056;-66
2024/01/14 16:15:53;;;;;;;10.27;6.22;;;;;;;;;;6264847;28;20494;-66
2024/01/14 16:18:56;;;;;;;11.32;6.18;;;;;;;;;;6270314;28;20048;-66
2024/01/14 16:21:57;;;;;;;17.92;10.95;;;;;;;;;;6270600;28;20499;-66
2024/01/14 16:24:58;;;;;;;18.17;10.20;;;;;;;;;;6268314;28;20063;-67
2024/01/14 16:27:59;;;;;;;13.18;6.70;;;;;;;;;;6263905;28;20060;-67
2024/01/14 16:31:00;;;;;;;12.10;6.60;;;;;;;;;;6278686;28;20053;-66
2024/01/14 16:34:02;;;;;;;12.35;6.70;;;;;;;;;;6262658;28;20048;-66
2024/01/14 16:37:03;;;;;;;10.57;6.25;;;;;;;;;;6262822;28;20072;-64
2024/01/14 16:40:05;;;;;;;10.57;5.35;;;;;;;;;;6266263;28;20508;-65
2024/01/14 16:43:06;;;;;;;10.98;5.75;;;;;;;;;;6268820;28;20053;-67
2024/01/14 16:46:07;;;;;;;10.77;6.30;;;;;;;;;;6263007;28;20051;-66
2024/01/14 16:49:09;;;;;;;10.88;6.28;;;;;;;;;;6269688;28;20084;-66
2024/01/14 16:52:10;;;;;;;14.05;7.50;;;;;;;;;;6274289;28;20529;-65
2024/01/14 16:55:11;;;;;;;14.13;7.55;;;;;;;;;;6274508;28;20048;-65
2024/01/14 16:58:12;;;;;;;13.60;8.38;;;;;;;;;;6266396;28;20061;-65
2024/01/14 17:01:13;;;;;;;12.18;6.95;;;;;;;;;;6267295;28;20052;-66
2024/01/14 17:04:14;;;;;;;10.00;5.97;;;;;;;;;;6269213;28;20416;-64
2024/01/14 17:07:16;;;;;;;11.95;6.28;;;;;;;;;;6272175;28;20052;-67
2024/01/14 17:10:17;;;;;;;24.20;14.00;;;;;;;;;;6265478;28;20056;-67
2024/01/14 17:13:17;;;;;;;10.93;6.88;;;;;;;;;;6267215;28;20500;-66
2024/01/14 17:16:23;;;;;;;13.43;7.07;;;;;;;;;;6267924;28;20124;-70
2024/01/14 17:19:23;;;;;;;11.63;6.18;;;;;;;;;;6273712;28;20060;-69
2024/01/14 17:22:24;;;;;;;12.35;6.15;;;;;;;;;;6283748;28;20069;-65
2024/01/14 17:25:26;;;;;;;15.07;7.18;;;;;;;;;;6266367;28;20118;-67
2024/01/14 17:28:27;;;;;;;10.10;6.07;;;;;;;;;;6269063;28;20507;-67
2024/01/14 17:31:27;;;;;;;10.82;6.30;;;;;;;;;;6271927;28;20082;-68
2024/01/14 17:34:32;;;;;;;11.30;6.45;;;;;;;;;;6268419;28;20049;-68
2024/01/14 17:37:33;;;;;;;14.75;7.75;;;;;;;;;;6270176;28;20045;-67
2024/01/14 17:40:34;;;;;;;12.68;6.63;;;;;;;;;;6268773;28;20756;-68
2024/01/14 17:43:35;;;;;;;11.95;7.25;;;;;;;;;;6272549;28;20484;-61
2024/01/14 17:46:36;;;;;;;12.90;7.30;;;;;;;;;;6265953;28;20041;-68
2024/01/14 17:49:37;;;;;;;15.30;7.68;;;;;;;;;;6269564;28;20044;-65
2024/01/14 17:52:38;;;;;;;12.10;6.70;;;;;;;;;;6269657;28;20546;-64
2024/01/14 17:55:38;;;;;;;11.20;6.53;;;;;;;;;;6270032;28;20143;-68
2024/01/14 17:58:40;;;;;;;10.80;6.13;;;;;;;;;;6265847;28;20115;-68
2024/01/14 18:01:41;;;;;;;10.65;5.55;;;;;;;;;;6267755;28;20502;-66